Time;durP1;ratioP1;P1;durP2;ratioP2;P2;SDS_P1;SDS_P2;PMS_P1;PMS_P2;Temp;Humidity;BMP_temperature;BMP_pressure;BME280_temperature;BME280_humidity;BME280_pressure;Samples;Min_cycle;Max_cycle;Signal;HPM_P1;HPM_P2
2021/01/07 00:00:27;;;;;;;21.17;12.87;;;;;;;;;;5065606;28;20456;-69
2021/01/07 00:02:54;;;;;;;17.63;11.77;;;;;;;;;;5072628;28;20460;-70
2021/01/07 00:05:21;;;;;;;19.63;12.37;;;;;;;;;;5070475;28;20448;-70
2021/01/07 00:07:47;;;;;;;16.27;11.30;;;;;;;;;;5068709;28;20466;-70
2021/01/07 00:10:15;;;;;;;21.70;12.37;;;;;;;;;;5073336;28;20870;-69
2021/01/07 00:12:41;;;;;;;14.40;9.90;;;;;;;;;;5066077;28;20464;-70
2021/01/07 00:15:08;;;;;;;15.73;10.77;;;;;;;;;;5073533;28;20447;-69
2021/01/07 00:17:35;;;;;;;16.30;12.00;;;;;;;;;;5068236;28;21243;-70
2021/01/07 00:20:01;;;;;;;18.47;12.23;;;;;;;;;;5071581;28;20456;-70
2021/01/07 00:22:28;;;;;;;18.40;11.90;;;;;;;;;;5074087;28;20445;-70
2021/01/07 00:24:55;;;;;;;19.27;11.50;;;;;;;;;;5078076;28;20480;-70
2021/01/07 00:27:22;;;;;;;15.37;11.00;;;;;;;;;;5067273;28;20485;-70
2021/01/07 00:29:49;;;;;;;21.20;12.90;;;;;;;;;;5071880;28;20467;-70
2021/01/07 00:32:15;;;;;;;19.20;11.30;;;;;;;;;;5072230;28;20472;-70
2021/01/07 00:34:42;;;;;;;15.67;10.10;;;;;;;;;;5068793;28;20484;-70
2021/01/07 00:37:08;;;;;;;17.90;11.07;;;;;;;;;;5071245;28;20476;-70
2021/01/07 00:39:35;;;;;;;15.93;10.73;;;;;;;;;;5063559;28;21015;-70
2021/01/07 00:42:02;;;;;;;22.37;10.77;;;;;;;;;;5071279;28;20445;-71
2021/01/07 00:44:29;;;;;;;21.20;12.50;;;;;;;;;;5068296;28;20453;-71
2021/01/07 00:46:56;;;;;;;16.90;11.60;;;;;;;;;;5074420;28;20861;-71
2021/01/07 00:49:22;;;;;;;20.67;11.93;;;;;;;;;;5063638;28;20457;-71
2021/01/07 00:51:49;;;;;;;20.07;11.40;;;;;;;;;;5063647;28;20453;-71
2021/01/07 00:54:18;;;;;;;16.13;10.40;;;;;;;;;;5063880;28;20997;-70
2021/01/07 00:56:44;;;;;;;19.33;12.77;;;;;;;;;;5065856;28;20457;-72
2021/01/07 00:59:12;;;;;;;17.90;11.73;;;;;;;;;;5068426;28;20479;-71
2021/01/07 01:01:43;;;;;;;20.77;10.87;;;;;;;;;;5077695;28;20456;-71
2021/01/07 01:04:10;;;;;;;21.17;12.00;;;;;;;;;;5074059;28;20964;-71
2021/01/07 01:06:37;;;;;;;19.70;12.20;;;;;;;;;;5073778;28;20453;-71
2021/01/07 01:09:04;;;;;;;18.90;11.73;;;;;;;;;;5072183;28;20448;-71
2021/01/07 01:11:31;;;;;;;17.83;11.40;;;;;;;;;;5066751;28;20479;-71
2021/01/07 01:13:57;;;;;;;17.17;11.63;;;;;;;;;;5072002;28;20460;-71
2021/01/07 01:16:27;;;;;;;17.77;11.00;;;;;;;;;;5076176;28;20441;-71
2021/01/07 01:18:54;;;;;;;17.63;11.93;;;;;;;;;;5064846;28;20506;-71
2021/01/07 01:21:21;;;;;;;17.70;10.50;;;;;;;;;;5079941;28;20448;-71
2021/01/07 01:23:48;;;;;;;17.13;11.37;;;;;;;;;;5071712;28;20502;-71
2021/01/07 01:26:16;;;;;;;21.07;12.47;;;;;;;;;;5070227;28;20502;-71
2021/01/07 01:28:42;;;;;;;16.93;11.23;;;;;;;;;;5071616;28;20473;-71
2021/01/07 01:31:09;;;;;;;22.10;13.57;;;;;;;;;;5058484;28;21310;-72
2021/01/07 01:33:36;;;;;;;17.87;11.70;;;;;;;;;;5069497;28;20882;-71
2021/01/07 01:36:04;;;;;;;20.50;12.87;;;;;;;;;;5070174;28;20454;-71
2021/01/07 01:38:30;;;;;;;21.47;13.33;;;;;;;;;;5064126;28;20977;-71
2021/01/07 01:41:00;;;;;;;19.40;12.73;;;;;;;;;;5058393;28;20462;-71
2021/01/07 01:43:26;;;;;;;19.90;13.07;;;;;;;;;;5071345;28;20451;-71
2021/01/07 01:45:53;;;;;;;20.80;12.40;;;;;;;;;;5065434;28;20465;-71
2021/01/07 01:48:20;;;;;;;19.87;11.90;;;;;;;;;;5069470;28;21090;-72
2021/01/07 01:50:46;;;;;;;19.30;11.17;;;;;;;;;;5070256;28;20445;-71
2021/01/07 01:53:14;;;;;;;20.77;13.17;;;;;;;;;;5070916;28;20449;-71
2021/01/07 01:55:41;;;;;;;21.13;12.77;;;;;;;;;;5068250;28;20453;-71
2021/01/07 01:58:08;;;;;;;22.23;12.67;;;;;;;;;;5076753;28;20480;-71
2021/01/07 02:00:35;;;;;;;22.30;12.77;;;;;;;;;;5070302;28;20449;-71
2021/01/07 02:03:05;;;;;;;23.83;14.37;;;;;;;;;;5067672;28;20453;-71
2021/01/07 02:05:32;;;;;;;22.43;13.90;;;;;;;;;;5070608;28;20441;-72
2021/01/07 02:07:58;;;;;;;25.00;13.90;;;;;;;;;;5081339;28;21221;-71
2021/01/07 02:10:27;;;;;;;22.37;13.40;;;;;;;;;;5079283;28;20480;-71
2021/01/07 02:12:53;;;;;;;21.57;13.33;;;;;;;;;;5069692;28;20453;-72
2021/01/07 02:15:20;;;;;;;18.60;12.03;;;;;;;;;;5071395;28;20457;-71
2021/01/07 02:17:47;;;;;;;18.27;11.87;;;;;;;;;;5069090;28;20469;-71
2021/01/07 02:20:15;;;;;;;22.77;13.93;;;;;;;;;;5074957;28;20463;-71
2021/01/07 02:22:42;;;;;;;25.03;15.00;;;;;;;;;;5069277;28;20449;-71
2021/01/07 02:25:10;;;;;;;24.80;14.00;;;;;;;;;;5062913;28;20814;-71
2021/01/07 02:27:36;;;;;;;24.20;14.10;;;;;;;;;;5058887;28;20473;-71
2021/01/07 02:30:03;;;;;;;20.93;12.90;;;;;;;;;;5073670;28;20497;-71
2021/01/07 02:32:30;;;;;;;24.73;13.47;;;;;;;;;;5065376;28;20457;-71
2021/01/07 02:34:56;;;;;;;21.10;13.50;;;;;;;;;;5062360;28;20907;-71
2021/01/07 02:37:24;;;;;;;23.73;13.60;;;;;;;;;;5062418;28;20488;-71
2021/01/07 02:39:52;;;;;;;21.60;12.73;;;;;;;;;;5068615;28;20486;-71
2021/01/07 02:42:19;;;;;;;20.90;13.33;;;;;;;;;;5062279;28;20449;-71
2021/01/07 02:44:46;;;;;;;22.87;13.00;;;;;;;;;;5069350;28;20526;-71
2021/01/07 02:47:13;;;;;;;22.13;13.70;;;;;;;;;;5064866;28;20492;-71
2021/01/07 02:49:40;;;;;;;25.57;13.80;;;;;;;;;;5069991;28;20449;-71
2021/01/07 02:52:06;;;;;;;23.70;13.40;;;;;;;;;;5081176;28;20444;-71
2021/01/07 02:54:34;;;;;;;21.17;12.80;;;;;;;;;;5064586;28;20460;-71
2021/01/07 02:57:01;;;;;;;17.90;12.30;;;;;;;;;;5074527;28;20470;-71
2021/01/07 02:59:27;;;;;;;21.50;13.23;;;;;;;;;;5069648;28;20581;-71
2021/01/07 03:01:54;;;;;;;18.70;12.00;;;;;;;;;;5068491;28;20925;-72
2021/01/07 03:04:20;;;;;;;22.50;13.20;;;;;;;;;;5061705;28;20473;-71
2021/01/07 03:06:47;;;;;;;19.47;12.37;;;;;;;;;;5066524;28;20445;-71
2021/01/07 03:09:14;;;;;;;20.10;11.57;;;;;;;;;;5068197;28;20448;-72
2021/01/07 03:11:41;;;;;;;19.23;10.97;;;;;;;;;;5076333;28;20454;-72
2021/01/07 03:14:08;;;;;;;21.87;12.73;;;;;;;;;;5071978;28;20509;-72
2021/01/07 03:16:34;;;;;;;22.60;13.43;;;;;;;;;;5075867;28;20453;-72
2021/01/07 03:19:01;;;;;;;22.07;11.67;;;;;;;;;;5076713;28;20487;-71
2021/01/07 03:21:27;;;;;;;22.97;12.33;;;;;;;;;;5069251;28;20479;-71
2021/01/07 03:23:54;;;;;;;20.80;13.30;;;;;;;;;;5074374;28;20458;-71
2021/01/07 03:26:21;;;;;;;82.10;13.80;;;;;;;;;;5071550;28;20456;-72
2021/01/07 03:28:48;;;;;;;21.57;13.13;;;;;;;;;;5077498;28;20822;-72
2021/01/07 03:31:15;;;;;;;23.20;13.87;;;;;;;;;;5077822;28;22256;-72
2021/01/07 03:33:42;;;;;;;23.50;13.97;;;;;;;;;;5063906;28;20517;-72
2021/01/07 03:36:08;;;;;;;18.90;11.90;;;;;;;;;;5068166;28;20837;-72
2021/01/07 03:38:35;;;;;;;19.87;12.47;;;;;;;;;;5074598;28;20479;-72
2021/01/07 03:41:01;;;;;;;22.93;11.90;;;;;;;;;;5076740;28;20445;-72
2021/01/07 03:43:28;;;;;;;19.80;12.00;;;;;;;;;;5069949;28;20444;-72
2021/01/07 03:45:55;;;;;;;20.83;12.57;;;;;;;;;;5079143;28;20949;-71
2021/01/07 03:48:22;;;;;;;21.30;13.33;;;;;;;;;;5071642;28;20468;-72
2021/01/07 03:50:49;;;;;;;19.17;11.30;;;;;;;;;;5073659;28;20449;-72
2021/01/07 03:53:15;;;;;;;21.40;13.20;;;;;;;;;;5064342;28;20465;-72
2021/01/07 03:55:42;;;;;;;20.70;12.20;;;;;;;;;;5077511;28;20453;-72
2021/01/07 03:58:09;;;;;;;18.30;12.03;;;;;;;;;;5067186;28;20489;-71
2021/01/07 04:00:35;;;;;;;22.77;12.63;;;;;;;;;;5073359;28;20532;-72
2021/01/07 04:03:04;;;;;;;23.77;13.43;;;;;;;;;;5068802;28;20503;-72
2021/01/07 04:05:31;;;;;;;17.63;11.47;;;;;;;;;;5071825;28;20894;-72
2021/01/07 04:07:57;;;;;;;17.63;11.37;;;;;;;;;;5070552;28;20469;-72
2021/01/07 04:10:24;;;;;;;20.80;12.30;;;;;;;;;;5073842;28;20972;-71
2021/01/07 04:12:50;;;;;;;17.70;11.43;;;;;;;;;;5083835;28;20444;-69
2021/01/07 04:15:17;;;;;;;18.43;12.13;;;;;;;;;;5072454;28;20505;-71
2021/01/07 04:17:44;;;;;;;17.07;11.47;;;;;;;;;;5062611;28;20484;-71
2021/01/07 04:20:11;;;;;;;22.30;12.80;;;;;;;;;;5076611;28;20572;-71
2021/01/07 04:22:39;;;;;;;16.57;11.00;;;;;;;;;;5076210;28;21038;-70
2021/01/07 04:25:06;;;;;;;20.47;11.97;;;;;;;;;;5069111;28;20448;-70
2021/01/07 04:27:32;;;;;;;17.07;10.33;;;;;;;;;;5067658;28;20520;-70
2021/01/07 04:29:59;;;;;;;19.00;12.60;;;;;;;;;;5074301;28;20455;-71
2021/01/07 04:32:26;;;;;;;18.67;11.40;;;;;;;;;;5069952;28;20466;-70
2021/01/07 04:34:52;;;;;;;22.77;13.63;;;;;;;;;;5079858;28;20838;-70
2021/01/07 04:37:20;;;;;;;22.40;13.53;;;;;;;;;;5072412;28;20489;-69
2021/01/07 04:39:46;;;;;;;18.33;12.63;;;;;;;;;;5069397;28;20531;-70
2021/01/07 04:42:13;;;;;;;22.57;12.30;;;;;;;;;;5079517;28;20456;-70
2021/01/07 04:44:40;;;;;;;27.13;14.10;;;;;;;;;;5072776;28;20572;-70
2021/01/07 04:47:07;;;;;;;22.63;13.67;;;;;;;;;;5077738;28;20471;-70
2021/01/07 04:49:33;;;;;;;21.90;14.63;;;;;;;;;;5072328;28;20445;-70
2021/01/07 04:52:00;;;;;;;22.00;13.60;;;;;;;;;;5088471;28;20448;-70
2021/01/07 04:54:27;;;;;;;17.90;11.90;;;;;;;;;;5085104;28;20448;-71
2021/01/07 04:56:54;;;;;;;25.50;14.30;;;;;;;;;;5076121;28;20483;-70
2021/01/07 04:59:21;;;;;;;23.53;13.00;;;;;;;;;;5079867;28;20476;-70
2021/01/07 05:01:48;;;;;;;26.83;13.97;;;;;;;;;;5068158;28;20870;-71
2021/01/07 05:04:15;;;;;;;24.77;13.60;;;;;;;;;;5070324;28;20452;-69
2021/01/07 05:06:42;;;;;;;24.27;13.90;;;;;;;;;;5064030;28;20453;-70
2021/01/07 05:09:09;;;;;;;27.47;15.30;;;;;;;;;;5067310;28;20457;-70
2021/01/07 05:11:36;;;;;;;29.10;16.93;;;;;;;;;;5078829;28;20460;-70
2021/01/07 05:14:04;;;;;;;25.23;14.77;;;;;;;;;;5082560;28;20948;-70
2021/01/07 05:16:30;;;;;;;27.43;14.70;;;;;;;;;;5068582;28;20465;-69
2021/01/07 05:18:57;;;;;;;26.03;15.23;;;;;;;;;;5077068;28;20477;-70
2021/01/07 05:21:24;;;;;;;31.50;17.13;;;;;;;;;;5080177;28;20448;-69
2021/01/07 05:23:51;;;;;;;25.33;14.80;;;;;;;;;;5086221;28;20798;-69
2021/01/07 05:26:18;;;;;;;32.40;15.60;;;;;;;;;;5073198;28;20830;-70
2021/01/07 05:28:46;;;;;;;29.73;15.13;;;;;;;;;;5077246;28;20984;-71
2021/01/07 05:31:13;;;;;;;25.60;14.40;;;;;;;;;;5068237;28;20519;-71
2021/01/07 05:33:40;;;;;;;26.60;15.03;;;;;;;;;;5067907;28;20453;-71
2021/01/07 05:36:23;;;;;;;26.43;15.07;;;;;;;;;;5070137;28;20445;-71
2021/01/07 05:38:50;;;;;;;29.43;14.40;;;;;;;;;;5069129;28;20485;-71
2021/01/07 05:41:17;;;;;;;27.93;16.50;;;;;;;;;;5079025;28;20445;-71
2021/01/07 05:43:44;;;;;;;26.90;16.30;;;;;;;;;;5063128;28;20446;-71
2021/01/07 05:46:12;;;;;;;30.00;16.07;;;;;;;;;;5068906;28;20466;-71
2021/01/07 05:48:38;;;;;;;27.93;15.27;;;;;;;;;;5080993;28;20473;-71
2021/01/07 05:51:05;;;;;;;30.23;16.40;;;;;;;;;;5075890;28;20446;-72
2021/01/07 05:53:32;;;;;;;32.17;16.20;;;;;;;;;;5072664;28;20469;-71
2021/01/07 05:55:59;;;;;;;26.30;16.30;;;;;;;;;;5071817;28;20448;-71
2021/01/07 05:58:25;;;;;;;27.97;16.83;;;;;;;;;;5066087;28;20477;-71
2021/01/07 06:00:55;;;;;;;29.10;15.03;;;;;;;;;;5075930;28;20456;-71
2021/01/07 06:03:23;;;;;;;25.53;16.47;;;;;;;;;;5071036;28;20503;-70
2021/01/07 06:05:51;;;;;;;37.80;18.30;;;;;;;;;;5069498;28;20449;-71
2021/01/07 06:08:18;;;;;;;29.13;16.57;;;;;;;;;;5064834;28;20472;-72
2021/01/07 06:10:46;;;;;;;41.63;18.50;;;;;;;;;;5075179;28;20461;-71
2021/01/07 06:13:12;;;;;;;33.20;17.60;;;;;;;;;;5059770;28;20457;-71
2021/01/07 06:15:39;;;;;;;35.00;19.77;;;;;;;;;;5067292;28;21145;-71
2021/01/07 06:18:06;;;;;;;37.20;18.03;;;;;;;;;;5065286;28;20846;-71
2021/01/07 06:20:34;;;;;;;38.53;18.67;;;;;;;;;;5077092;28;20449;-71
2021/01/07 06:23:01;;;;;;;39.13;19.17;;;;;;;;;;5072740;28;20486;-70
2021/01/07 06:25:28;;;;;;;43.47;18.50;;;;;;;;;;5067734;28;20449;-71
2021/01/07 06:27:55;;;;;;;40.70;19.23;;;;;;;;;;5063888;28;21051;-70
2021/01/07 06:30:35;;;;;;;40.57;18.20;;;;;;;;;;5062420;28;20905;-71
2021/01/07 06:33:02;;;;;;;41.00;18.77;;;;;;;;;;5069615;28;20448;-71
2021/01/07 06:35:34;;;;;;;35.43;20.60;;;;;;;;;;5067908;28;20465;-71
2021/01/07 06:38:01;;;;;;;41.80;18.43;;;;;;;;;;5069750;28;20472;-71
2021/01/07 06:40:28;;;;;;;40.97;19.30;;;;;;;;;;5070046;28;20828;-71
2021/01/07 06:42:55;;;;;;;46.60;20.07;;;;;;;;;;5073227;28;20441;-71
2021/01/07 06:45:23;;;;;;;44.60;22.27;;;;;;;;;;5079454;28;20457;-71
2021/01/07 06:47:51;;;;;;;41.13;21.00;;;;;;;;;;5069011;28;20496;-71
2021/01/07 06:50:18;;;;;;;41.87;22.40;;;;;;;;;;5070570;28;20447;-71
2021/01/07 06:52:45;;;;;;;41.20;21.00;;;;;;;;;;5066529;28;20465;-71
2021/01/07 06:55:13;;;;;;;41.13;22.30;;;;;;;;;;5078428;28;20480;-71
2021/01/07 06:57:41;;;;;;;40.30;19.30;;;;;;;;;;5068224;28;20568;-70
2021/01/07 07:00:08;;;;;;;40.50;19.43;;;;;;;;;;5071455;28;20487;-71
2021/01/07 07:02:35;;;;;;;38.83;18.13;;;;;;;;;;5072942;28;20472;-71
2021/01/07 07:05:04;;;;;;;45.07;20.80;;;;;;;;;;5069652;28;20451;-71
2021/01/07 07:07:45;;;;;;;43.50;19.90;;;;;;;;;;5074194;28;20476;-71
2021/01/07 07:10:30;;;;;;;42.60;20.90;;;;;;;;;;5060260;28;20441;-71
2021/01/07 07:12:58;;;;;;;37.40;19.57;;;;;;;;;;5083144;28;20965;-71
2021/01/07 07:15:26;;;;;;;41.03;19.80;;;;;;;;;;5077801;28;20453;-71
2021/01/07 07:17:54;;;;;;;45.53;21.23;;;;;;;;;;5074909;28;20471;-70
2021/01/07 07:20:21;;;;;;;41.67;20.70;;;;;;;;;;5078614;28;20480;-71
2021/01/07 07:22:47;;;;;;;48.30;22.40;;;;;;;;;;5065792;28;20909;-71
2021/01/07 07:25:19;;;;;;;42.97;19.40;;;;;;;;;;5070453;28;20953;-71
2021/01/07 07:27:49;;;;;;;52.00;23.23;;;;;;;;;;5071991;28;20488;-71
2021/01/07 07:30:18;;;;;;;46.30;22.50;;;;;;;;;;5064548;28;20820;-72
2021/01/07 07:32:45;;;;;;;47.67;23.50;;;;;;;;;;5083065;28;20440;-72
2021/01/07 07:35:21;;;;;;;47.23;21.63;;;;;;;;;;5066735;28;20465;-71
2021/01/07 07:37:48;;;;;;;50.73;21.63;;;;;;;;;;5061586;28;20469;-71
2021/01/07 07:40:22;;;;;;;50.33;23.40;;;;;;;;;;5064953;28;20534;-72
2021/01/07 07:42:49;;;;;;;48.33;23.10;;;;;;;;;;5072721;28;20472;-72
2021/01/07 07:45:24;;;;;;;49.57;24.07;;;;;;;;;;5062071;28;20875;-72
2021/01/07 07:47:51;;;;;;;47.50;23.00;;;;;;;;;;5063480;28;20466;-71
2021/01/07 07:50:21;;;;;;;43.97;19.43;;;;;;;;;;5066644;28;20455;-71
2021/01/07 07:52:47;;;;;;;43.20;22.23;;;;;;;;;;5066204;28;20453;-71
2021/01/07 07:55:14;;;;;;;45.27;21.30;;;;;;;;;;5083821;28;20445;-72
2021/01/07 07:57:47;;;;;;;49.20;23.67;;;;;;;;;;5068620;28;21039;-71
2021/01/07 08:00:15;;;;;;;42.43;23.27;;;;;;;;;;5075315;28;20480;-71
2021/01/07 08:02:43;;;;;;;54.50;23.43;;;;;;;;;;5074587;28;20453;-71
2021/01/07 08:05:10;;;;;;;42.83;22.23;;;;;;;;;;5081035;28;20449;-71
2021/01/07 08:07:37;;;;;;;42.70;22.17;;;;;;;;;;5069717;28;20562;-71
2021/01/07 08:10:07;;;;;;;47.00;22.33;;;;;;;;;;5069183;28;20441;-71
2021/01/07 08:12:35;;;;;;;50.20;22.23;;;;;;;;;;5070670;28;20457;-71
2021/01/07 08:15:02;;;;;;;48.60;21.17;;;;;;;;;;5067832;28;20452;-73
2021/01/07 08:17:28;;;;;;;41.90;23.07;;;;;;;;;;5069312;28;20857;-70
2021/01/07 08:19:56;;;;;;;44.60;18.93;;;;;;;;;;5072568;28;20476;-71
2021/01/07 08:22:27;;;;;;;51.00;22.73;;;;;;;;;;5067645;28;20457;-70
2021/01/07 08:24:54;;;;;;;43.63;20.47;;;;;;;;;;5071830;28;21251;-71
2021/01/07 08:27:23;;;;;;;49.20;22.57;;;;;;;;;;5070204;28;20476;-71
2021/01/07 08:29:51;;;;;;;53.73;23.97;;;;;;;;;;5070684;28;20468;-71
2021/01/07 08:32:19;;;;;;;49.17;23.73;;;;;;;;;;5066056;28;20465;-70
2021/01/07 08:34:46;;;;;;;47.90;24.07;;;;;;;;;;5068629;28;20889;-71
2021/01/07 08:37:16;;;;;;;44.80;23.33;;;;;;;;;;5071578;28;20479;-71
2021/01/07 08:39:43;;;;;;;48.73;22.57;;;;;;;;;;5071459;28;20862;-71
2021/01/07 08:42:10;;;;;;;40.90;20.93;;;;;;;;;;5072756;28;20459;-71
2021/01/07 08:44:37;;;;;;;40.33;21.60;;;;;;;;;;5069535;28;20452;-71
2021/01/07 08:47:05;;;;;;;44.70;21.10;;;;;;;;;;5070957;28;20475;-71
2021/01/07 08:49:31;;;;;;;40.90;19.90;;;;;;;;;;5066025;28;20938;-72
2021/01/07 08:52:01;;;;;;;49.13;22.30;;;;;;;;;;5068237;28;20460;-71
2021/01/07 08:54:29;;;;;;;49.03;23.97;;;;;;;;;;5069015;28;20452;-71
2021/01/07 08:56:56;;;;;;;45.27;21.37;;;;;;;;;;5069592;28;20488;-71
2021/01/07 08:59:25;;;;;;;51.70;22.30;;;;;;;;;;5074324;28;20487;-71
2021/01/07 09:01:52;;;;;;;46.13;22.97;;;;;;;;;;5066839;28;20454;-71
2021/01/07 09:04:23;;;;;;;49.37;23.53;;;;;;;;;;5069460;28;21067;-71
2021/01/07 09:06:53;;;;;;;44.87;22.20;;;;;;;;;;5066091;28;20450;-71
2021/01/07 09:09:20;;;;;;;43.63;20.10;;;;;;;;;;5066915;28;20475;-71
2021/01/07 09:11:48;;;;;;;43.60;21.27;;;;;;;;;;5068236;28;20440;-71
2021/01/07 09:14:14;;;;;;;44.77;20.87;;;;;;;;;;5071192;28;20445;-71
2021/01/07 09:16:41;;;;;;;42.57;21.53;;;;;;;;;;5071537;28;20468;-70
2021/01/07 09:19:08;;;;;;;45.87;25.00;;;;;;;;;;5072986;28;20477;-71
2021/01/07 09:21:34;;;;;;;43.97;21.03;;;;;;;;;;5069714;28;20472;-71
2021/01/07 09:24:01;;;;;;;40.80;20.10;;;;;;;;;;5069827;28;20454;-71
2021/01/07 09:26:28;;;;;;;40.40;21.60;;;;;;;;;;5067599;28;20450;-71
2021/01/07 09:28:56;;;;;;;38.40;19.33;;;;;;;;;;5074000;28;20477;-71
2021/01/07 09:31:23;;;;;;;43.33;21.00;;;;;;;;;;5069608;28;20445;-71
2021/01/07 09:33:49;;;;;;;38.50;19.93;;;;;;;;;;5070047;28;20460;-71
2021/01/07 09:36:16;;;;;;;37.80;19.57;;;;;;;;;;5069215;28;20471;-71
2021/01/07 09:38:42;;;;;;;42.60;22.00;;;;;;;;;;5063523;28;20494;-70
2021/01/07 09:41:09;;;;;;;38.97;19.67;;;;;;;;;;5075561;28;20445;-70
2021/01/07 09:43:36;;;;;;;39.53;21.20;;;;;;;;;;5066219;28;20451;-70
2021/01/07 09:46:03;;;;;;;36.33;18.67;;;;;;;;;;5064155;28;21114;-70
2021/01/07 09:48:30;;;;;;;34.17;18.83;;;;;;;;;;5077783;28;20502;-70
2021/01/07 09:50:56;;;;;;;43.23;20.10;;;;;;;;;;5074848;28;20457;-70
2021/01/07 09:53:23;;;;;;;39.27;18.03;;;;;;;;;;5053977;28;20468;-71
2021/01/07 09:55:50;;;;;;;40.67;19.90;;;;;;;;;;5068070;28;20449;-72
2021/01/07 09:58:17;;;;;;;36.00;19.90;;;;;;;;;;5070925;28;20461;-72
2021/01/07 10:00:44;;;;;;;40.37;19.83;;;;;;;;;;5078209;28;20481;-72
2021/01/07 10:03:11;;;;;;;37.07;19.27;;;;;;;;;;5059732;28;20461;-72
2021/01/07 10:05:38;;;;;;;38.80;20.43;;;;;;;;;;5069164;28;20468;-72
2021/01/07 10:08:05;;;;;;;37.53;19.53;;;;;;;;;;5062702;28;21020;-73
2021/01/07 10:10:31;;;;;;;35.97;18.00;;;;;;;;;;5065803;28;20956;-71
2021/01/07 10:12:58;;;;;;;31.93;17.93;;;;;;;;;;5067597;28;20464;-73
2021/01/07 10:15:25;;;;;;;38.83;19.47;;;;;;;;;;5064414;28;20467;-71
2021/01/07 10:17:51;;;;;;;40.07;21.10;;;;;;;;;;5065947;28;21034;-72
2021/01/07 10:20:19;;;;;;;38.63;20.00;;;;;;;;;;5068890;28;20492;-71
2021/01/07 10:22:47;;;;;;;31.00;18.27;;;;;;;;;;5072021;28;20955;-71
2021/01/07 10:25:13;;;;;;;34.80;18.60;;;;;;;;;;5072057;28;20661;-71
2021/01/07 10:27:41;;;;;;;37.30;18.73;;;;;;;;;;5073379;28;20472;-71
2021/01/07 10:30:08;;;;;;;38.60;20.30;;;;;;;;;;5062319;28;20504;-72
2021/01/07 10:32:34;;;;;;;34.80;18.90;;;;;;;;;;5069574;28;20452;-71
2021/01/07 10:35:02;;;;;;;35.10;18.93;;;;;;;;;;5072033;28;20505;-68
2021/01/07 10:37:33;;;;;;;33.20;18.37;;;;;;;;;;5075932;28;20476;-69
2021/01/07 10:40:03;;;;;;;30.77;18.13;;;;;;;;;;5062889;28;20461;-68
2021/01/07 10:42:30;;;;;;;32.33;17.90;;;;;;;;;;5070689;28;20445;-69
2021/01/07 10:44:57;;;;;;;33.23;19.00;;;;;;;;;;5064574;28;20445;-69
2021/01/07 10:47:27;;;;;;;32.40;19.57;;;;;;;;;;5068863;28;20468;-69
2021/01/07 10:49:55;;;;;;;36.30;19.23;;;;;;;;;;5062377;28;20437;-70
2021/01/07 10:52:41;;;;;;;29.40;17.63;;;;;;;;;;5066275;28;20458;-70
2021/01/07 10:55:10;;;;;;;33.70;18.30;;;;;;;;;;5071829;28;20445;-70
2021/01/07 10:57:51;;;;;;;33.80;17.87;;;;;;;;;;5064416;28;20461;-70
2021/01/07 11:00:23;;;;;;;29.90;17.40;;;;;;;;;;5062086;28;20495;-69
2021/01/07 11:03:07;;;;;;;49.73;17.70;;;;;;;;;;5071444;28;21261;-69
2021/01/07 11:05:37;;;;;;;28.47;16.47;;;;;;;;;;5061316;28;20468;-69
2021/01/07 11:08:14;;;;;;;29.37;17.20;;;;;;;;;;5057056;28;20490;-69
2021/01/07 11:10:44;;;;;;;28.43;15.50;;;;;;;;;;5062233;28;20453;-69
2021/01/07 11:13:11;;;;;;;37.03;18.93;;;;;;;;;;5069595;28;20441;-70
2021/01/07 11:15:38;;;;;;;31.13;16.60;;;;;;;;;;5070581;28;20945;-71
2021/01/07 11:18:08;;;;;;;35.30;17.30;;;;;;;;;;5070597;28;20461;-72
2021/01/07 11:20:35;;;;;;;29.60;16.77;;;;;;;;;;5071298;28;20477;-72
2021/01/07 11:23:01;;;;;;;38.07;17.83;;;;;;;;;;5069815;28;20460;-70
2021/01/07 11:25:29;;;;;;;34.63;16.43;;;;;;;;;;5062007;28;20461;-70
2021/01/07 11:27:57;;;;;;;31.87;18.30;;;;;;;;;;5076313;28;20468;-71
2021/01/07 11:30:26;;;;;;;32.73;16.77;;;;;;;;;;5078108;28;20445;-72
2021/01/07 11:32:52;;;;;;;29.77;16.73;;;;;;;;;;5079240;28;20559;-72
2021/01/07 11:35:19;;;;;;;32.00;18.07;;;;;;;;;;5075499;28;20871;-72
2021/01/07 11:37:53;;;;;;;29.60;16.37;;;;;;;;;;5069661;28;20491;-70
2021/01/07 11:40:24;;;;;;;31.17;17.47;;;;;;;;;;5065974;28;20872;-70
2021/01/07 11:43:06;;;;;;;32.80;16.87;;;;;;;;;;5066428;28;20453;-71
2021/01/07 11:45:34;;;;;;;29.00;17.03;;;;;;;;;;5067034;28;20969;-71
2021/01/07 11:48:05;;;;;;;32.40;16.70;;;;;;;;;;5073227;28;20522;-70
2021/01/07 11:50:36;;;;;;;32.13;17.47;;;;;;;;;;5069423;28;20488;-72
2021/01/07 11:53:03;;;;;;;28.57;16.57;;;;;;;;;;5069735;28;20730;-72
2021/01/07 11:55:30;;;;;;;32.97;16.40;;;;;;;;;;5067360;28;20453;-72
2021/01/07 11:57:57;;;;;;;31.73;18.00;;;;;;;;;;5074967;28;20475;-72
2021/01/07 12:00:25;;;;;;;25.80;15.43;;;;;;;;;;5073543;28;20853;-72
2021/01/07 12:02:52;;;;;;;30.40;16.37;;;;;;;;;;5066970;28;20855;-73
2021/01/07 12:05:20;;;;;;;27.50;15.60;;;;;;;;;;5060083;28;20473;-72
2021/01/07 12:07:58;;;;;;;27.10;15.83;;;;;;;;;;5068704;28;20488;-73
2021/01/07 12:10:25;;;;;;;28.20;15.50;;;;;;;;;;5070051;28;20451;-72
2021/01/07 12:12:57;;;;;;;26.67;14.40;;;;;;;;;;5067377;28;20531;-72
2021/01/07 12:15:24;;;;;;;28.50;16.60;;;;;;;;;;5070843;28;20441;-73
2021/01/07 12:17:53;;;;;;;26.90;17.47;;;;;;;;;;5071366;28;20466;-72
2021/01/07 12:20:19;;;;;;;28.63;15.17;;;;;;;;;;5073190;28;20476;-72
2021/01/07 12:22:49;;;;;;;27.80;14.57;;;;;;;;;;5075850;28;20500;-72
2021/01/07 12:25:16;;;;;;;31.63;15.97;;;;;;;;;;5079256;28;20448;-72
2021/01/07 12:27:46;;;;;;;28.10;15.93;;;;;;;;;;5065244;28;20564;-72
2021/01/07 12:30:16;;;;;;;30.13;16.87;;;;;;;;;;5079810;28;21074;-71
2021/01/07 12:32:45;;;;;;;26.33;16.60;;;;;;;;;;5067614;28;20506;-72
2021/01/07 12:35:16;;;;;;;28.40;16.30;;;;;;;;;;5066042;28;20464;-72
2021/01/07 12:37:46;;;;;;;31.33;17.53;;;;;;;;;;5100753;28;20494;-72
2021/01/07 12:40:17;;;;;;;33.80;17.03;;;;;;;;;;5117990;27;20481;-72
2021/01/07 12:42:45;;;;;;;27.97;15.30;;;;;;;;;;5121150;27;20804;-72
2021/01/07 12:45:13;;;;;;;27.60;15.90;;;;;;;;;;5109207;27;20464;-73
2021/01/07 12:47:39;;;;;;;30.63;16.40;;;;;;;;;;5114651;27;20604;-70
2021/01/07 12:50:07;;;;;;;32.20;16.90;;;;;;;;;;5116010;27;20439;-69
2021/01/07 12:52:35;;;;;;;30.93;18.33;;;;;;;;;;5113202;27;20463;-69
2021/01/07 12:55:02;;;;;;;30.70;17.60;;;;;;;;;;5111468;27;20443;-69
2021/01/07 12:57:35;;;;;;;29.70;16.93;;;;;;;;;;5121788;27;20540;-69
2021/01/07 13:00:05;;;;;;;32.80;17.80;;;;;;;;;;5117355;27;20486;-69
2021/01/07 13:02:32;;;;;;;33.73;17.70;;;;;;;;;;5108430;27;20541;-68
2021/01/07 13:05:03;;;;;;;30.37;16.80;;;;;;;;;;5105704;27;20450;-69
2021/01/07 13:07:31;;;;;;;30.60;16.90;;;;;;;;;;5122966;27;20482;-70
2021/01/07 13:10:02;;;;;;;30.40;16.33;;;;;;;;;;5120169;27;20443;-69
2021/01/07 13:12:29;;;;;;;32.07;17.47;;;;;;;;;;5112446;28;20443;-69
2021/01/07 13:14:56;;;;;;;30.90;17.80;;;;;;;;;;5124222;27;20447;-68
2021/01/07 13:17:22;;;;;;;30.27;16.40;;;;;;;;;;5112280;27;20850;-69
2021/01/07 13:19:49;;;;;;;29.40;17.97;;;;;;;;;;5109816;27;20479;-70
2021/01/07 13:22:16;;;;;;;36.10;19.30;;;;;;;;;;5103348;27;20447;-69
2021/01/07 13:24:43;;;;;;;30.83;16.70;;;;;;;;;;5110570;27;20454;-68
2021/01/07 13:27:11;;;;;;;28.50;16.67;;;;;;;;;;5111850;27;20531;-70
2021/01/07 13:29:38;;;;;;;33.40;17.20;;;;;;;;;;5112471;27;20443;-70
2021/01/07 13:32:06;;;;;;;33.67;17.83;;;;;;;;;;5115330;27;20446;-70
2021/01/07 13:34:33;;;;;;;34.03;16.63;;;;;;;;;;5113180;27;20450;-69
2021/01/07 13:37:00;;;;;;;34.27;16.63;;;;;;;;;;5110891;27;20483;-69
2021/01/07 13:39:26;;;;;;;36.83;18.47;;;;;;;;;;5114803;27;21026;-68
2021/01/07 13:41:54;;;;;;;35.83;16.73;;;;;;;;;;5112205;27;20500;-70
2021/01/07 13:44:23;;;;;;;32.73;18.27;;;;;;;;;;5106173;27;20994;-69
2021/01/07 13:46:50;;;;;;;31.20;18.10;;;;;;;;;;5109227;27;20823;-69
2021/01/07 13:49:20;;;;;;;31.47;17.50;;;;;;;;;;5109394;27;20510;-69
2021/01/07 13:51:47;;;;;;;34.93;16.90;;;;;;;;;;5112681;27;20442;-69
2021/01/07 13:54:16;;;;;;;32.80;17.03;;;;;;;;;;5111141;27;20456;-72
2021/01/07 13:56:44;;;;;;;31.13;18.37;;;;;;;;;;5125425;27;20439;-68
2021/01/07 13:59:11;;;;;;;36.87;19.53;;;;;;;;;;5122759;27;20989;-70
2021/01/07 14:01:39;;;;;;;32.70;19.03;;;;;;;;;;5113127;27;20446;-69
2021/01/07 14:04:07;;;;;;;41.43;20.80;;;;;;;;;;5114301;27;20451;-69
2021/01/07 14:06:33;;;;;;;39.23;20.27;;;;;;;;;;5115346;27;20457;-69
2021/01/07 14:09:06;;;;;;;42.37;19.10;;;;;;;;;;5108680;27;20847;-70
2021/01/07 14:11:34;;;;;;;42.90;19.50;;;;;;;;;;5108829;27;20451;-70
2021/01/07 14:14:01;;;;;;;35.67;18.47;;;;;;;;;;5107078;27;20447;-70
2021/01/07 14:16:28;;;;;;;42.00;20.50;;;;;;;;;;5104559;28;20822;-70
2021/01/07 14:18:56;;;;;;;36.97;18.97;;;;;;;;;;5102731;27;20572;-70